BWA415 MKJP-TTPP
Flight info
| Callsign | BWA415 |
|---|---|
| Flight time | 2h 20m |
| Altitude | 35000 |
| Route | AMEKO DCT TARBA UA511 GUTIM UL337 VUDAL DCT ANELU DCT LEXOR DCT TALUS |
| Aircraft | B738/M-SDE2E3FGHIRWXY/LB1 |
Departure
| Time | 2026-04-29 13:16 |
|---|---|
| Airport | Norman Manley International Airport (MKJP) |
Arrival
| Time | 2026-04-29 15:36 |
|---|---|
| Airport | Piarco International Airport (TTPP) |
| Time | Latitude | Longitude | Altitude | Speed | Heading |
|---|---|---|---|---|---|
| 2026-04-29 12:42 | 17.93666 | -76.78034 | 13 ft | 0 kts | 112° |
| 2026-04-29 13:04 | 17.93672 | -76.78048 | 13 ft | 4 kts | 110° |
| 2026-04-29 13:05 | 17.93681 | -76.78074 | 13 ft | 4 kts | 116° |
| 2026-04-29 13:05 | 17.93694 | -76.78092 | 13 ft | 4 kts | 178° |
| 2026-04-29 13:05 | 17.93702 | -76.78090 | 13 ft | 1 kts | 202° |
| 2026-04-29 13:05 | 17.93703 | -76.78090 | 13 ft | 1 kts | 202° |
| 2026-04-29 13:09 | 17.93698 | -76.78092 | 13 ft | 3 kts | 202° |
| 2026-04-29 13:10 | 17.93676 | -76.78101 | 13 ft | 3 kts | 202° |
| 2026-04-29 13:10 | 17.93654 | -76.78111 | 14 ft | 3 kts | 202° |
| 2026-04-29 13:10 | 17.93632 | -76.78120 | 13 ft | 3 kts | 202° |
| 2026-04-29 13:10 | 17.93611 | -76.78129 | 13 ft | 3 kts | 202° |
| 2026-04-29 13:11 | 17.93581 | -76.78142 | 13 ft | 6 kts | 202° |
| 2026-04-29 13:11 | 17.93531 | -76.78168 | 13 ft | 10 kts | 221° |
| 2026-04-29 13:11 | 17.93529 | -76.78242 | 13 ft | 12 kts | 292° |
| 2026-04-29 13:11 | 17.93566 | -76.78336 | 14 ft | 15 kts | 292° |
| 2026-04-29 13:12 | 17.93610 | -76.78452 | 13 ft | 19 kts | 291° |
| 2026-04-29 13:12 | 17.93664 | -76.78596 | 15 ft | 23 kts | 291° |
| 2026-04-29 13:12 | 17.93732 | -76.78765 | 15 ft | 26 kts | 293° |
| 2026-04-29 13:12 | 17.93804 | -76.78955 | 14 ft | 29 kts | 292° |
| 2026-04-29 13:13 | 17.93884 | -76.79161 | 13 ft | 31 kts | 293° |
| 2026-04-29 13:13 | 17.93962 | -76.79366 | 15 ft | 29 kts | 293° |
| 2026-04-29 13:13 | 17.94036 | -76.79557 | 13 ft | 28 kts | 292° |
| 2026-04-29 13:13 | 17.94091 | -76.79738 | 12 ft | 24 kts | 277° |
| 2026-04-29 13:14 | 17.94096 | -76.79888 | 12 ft | 17 kts | 238° |
| 2026-04-29 13:14 | 17.94085 | -76.79900 | 12 ft | 0 kts | 221° |
| 2026-04-29 13:14 | 17.94083 | -76.79902 | 12 ft | 2 kts | 217° |
| 2026-04-29 13:15 | 17.94061 | -76.79915 | 12 ft | 6 kts | 210° |
| 2026-04-29 13:15 | 17.94018 | -76.79912 | 12 ft | 7 kts | 134° |
| 2026-04-29 13:15 | 17.93994 | -76.79861 | 12 ft | 9 kts | 112° |
| 2026-04-29 13:15 | 17.93924 | -76.79680 | 12 ft | 62 kts | 112° |
| 2026-04-29 13:16 | 17.93664 | -76.78993 | 14 ft | 138 kts | 111° |
| 2026-04-29 13:16 | 17.93229 | -76.77866 | 243 ft | 180 kts | 114° |
| 2026-04-29 13:16 | 17.92677 | -76.76740 | 1448 ft | 165 kts | 114° |
| 2026-04-29 13:16 | 17.92157 | -76.75716 | 2499 ft | 160 kts | 116° |
| 2026-04-29 13:17 | 17.91574 | -76.74654 | 3014 ft | 177 kts | 114° |
| 2026-04-29 13:17 | 17.90962 | -76.73408 | 3434 ft | 199 kts | 115° |
| 2026-04-29 13:17 | 17.90296 | -76.72130 | 4110 ft | 200 kts | 117° |
| 2026-04-29 13:17 | 17.89615 | -76.70881 | 4864 ft | 198 kts | 118° |
| 2026-04-29 13:18 | 17.88908 | -76.69580 | 5202 ft | 216 kts | 117° |
| 2026-04-29 13:18 | 17.88175 | -76.68117 | 5401 ft | 236 kts | 116° |
| 2026-04-29 13:18 | 17.87396 | -76.66549 | 5819 ft | 250 kts | 116° |
| 2026-04-29 13:18 | 17.86558 | -76.64869 | 6127 ft | 267 kts | 117° |
| 2026-04-29 13:19 | 17.85673 | -76.63102 | 6874 ft | 271 kts | 116° |
| 2026-04-29 13:19 | 17.84792 | -76.61348 | 7712 ft | 272 kts | 117° |
| 2026-04-29 13:19 | 17.83897 | -76.59578 | 8405 ft | 277 kts | 117° |
| 2026-04-29 13:19 | 17.82989 | -76.57780 | 9152 ft | 281 kts | 117° |
| 2026-04-29 13:20 | 17.82070 | -76.55959 | 9899 ft | 283 kts | 117° |
| 2026-04-29 13:20 | 17.81139 | -76.54096 | 10395 ft | 297 kts | 116° |
| 2026-04-29 13:20 | 17.80236 | -76.52054 | 10554 ft | 320 kts | 114° |
| 2026-04-29 13:20 | 17.79312 | -76.49818 | 10774 ft | 339 kts | 114° |
| 2026-04-29 13:21 | 17.78375 | -76.47506 | 11275 ft | 347 kts | 114° |
| 2026-04-29 13:21 | 17.77427 | -76.45168 | 11914 ft | 351 kts | 114° |
| 2026-04-29 13:21 | 17.76465 | -76.42805 | 12539 ft | 354 kts | 114° |
| 2026-04-29 13:21 | 17.75487 | -76.40417 | 13123 ft | 359 kts | 114° |
| 2026-04-29 13:22 | 17.74493 | -76.37996 | 13700 ft | 364 kts | 114° |
| 2026-04-29 13:22 | 17.73483 | -76.35547 | 14283 ft | 368 kts | 115° |
| 2026-04-29 13:22 | 17.72462 | -76.33071 | 14836 ft | 372 kts | 115° |
| 2026-04-29 13:22 | 17.71424 | -76.30561 | 15385 ft | 377 kts | 115° |
| 2026-04-29 13:23 | 17.70377 | -76.28032 | 15926 ft | 381 kts | 115° |
| 2026-04-29 13:23 | 17.69313 | -76.25467 | 16447 ft | 385 kts | 115° |
| 2026-04-29 13:23 | 17.68239 | -76.22878 | 16958 ft | 389 kts | 115° |
| 2026-04-29 13:23 | 17.67141 | -76.20231 | 17457 ft | 393 kts | 115° |
| 2026-04-29 13:24 | 17.66043 | -76.17589 | 17940 ft | 397 kts | 115° |
| 2026-04-29 13:24 | 17.64934 | -76.14918 | 18407 ft | 401 kts | 115° |
| 2026-04-29 13:24 | 17.63815 | -76.12224 | 18860 ft | 405 kts | 115° |
| 2026-04-29 13:24 | 17.62683 | -76.09503 | 19312 ft | 408 kts | 115° |
| 2026-04-29 13:25 | 17.61529 | -76.06730 | 19735 ft | 413 kts | 115° |
| 2026-04-29 13:25 | 17.59213 | -76.01161 | 20589 ft | 420 kts | 116° |
| 2026-04-29 13:25 | 17.58041 | -75.98348 | 21004 ft | 423 kts | 116° |
| 2026-04-29 13:26 | 17.56859 | -75.95513 | 21401 ft | 426 kts | 116° |
| 2026-04-29 13:26 | 17.55667 | -75.92654 | 21765 ft | 430 kts | 116° |
| 2026-04-29 13:26 | 17.54464 | -75.89769 | 22136 ft | 433 kts | 116° |
| 2026-04-29 13:26 | 17.53253 | -75.86866 | 22518 ft | 436 kts | 116° |
| 2026-04-29 13:27 | 17.52033 | -75.83945 | 22873 ft | 439 kts | 116° |
| 2026-04-29 13:27 | 17.50804 | -75.81004 | 23203 ft | 443 kts | 117° |
| 2026-04-29 13:27 | 17.49566 | -75.78039 | 23549 ft | 445 kts | 117° |
| 2026-04-29 13:27 | 17.48321 | -75.75061 | 23889 ft | 448 kts | 117° |
| 2026-04-29 13:28 | 17.47068 | -75.72063 | 24196 ft | 451 kts | 117° |
| 2026-04-29 13:28 | 17.45805 | -75.69043 | 24503 ft | 454 kts | 117° |
| 2026-04-29 13:28 | 17.44531 | -75.66002 | 24790 ft | 457 kts | 117° |
| 2026-04-29 13:28 | 17.43251 | -75.62945 | 25069 ft | 460 kts | 117° |
| 2026-04-29 13:29 | 17.41961 | -75.59869 | 25357 ft | 463 kts | 117° |
| 2026-04-29 13:29 | 17.40664 | -75.56776 | 25629 ft | 466 kts | 117° |
| 2026-04-29 13:29 | 17.39357 | -75.53662 | 25922 ft | 468 kts | 117° |
| 2026-04-29 13:29 | 17.38045 | -75.50538 | 26174 ft | 471 kts | 117° |
| 2026-04-29 13:30 | 17.36724 | -75.47392 | 26445 ft | 473 kts | 117° |
| 2026-04-29 13:30 | 17.35395 | -75.44230 | 26714 ft | 475 kts | 117° |
| 2026-04-29 13:30 | 17.34062 | -75.41057 | 26954 ft | 478 kts | 117° |
| 2026-04-29 13:30 | 17.32720 | -75.37864 | 27198 ft | 480 kts | 117° |
| 2026-04-29 13:31 | 17.31372 | -75.34659 | 27422 ft | 483 kts | 117° |
| 2026-04-29 13:31 | 17.30014 | -75.31435 | 27653 ft | 485 kts | 117° |
| 2026-04-29 13:31 | 17.29094 | -75.29253 | 27800 ft | 487 kts | 118° |
| 2026-04-29 13:31 | 17.27723 | -75.25998 | 28044 ft | 489 kts | 118° |
| 2026-04-29 13:32 | 17.26350 | -75.22739 | 28264 ft | 491 kts | 118° |
| 2026-04-29 13:32 | 17.24969 | -75.19466 | 28465 ft | 493 kts | 118° |
| 2026-04-29 13:32 | 17.23578 | -75.16171 | 28672 ft | 496 kts | 118° |
| 2026-04-29 13:32 | 17.22185 | -75.12871 | 28889 ft | 497 kts | 118° |
| 2026-04-29 13:33 | 17.20783 | -75.09554 | 29108 ft | 499 kts | 118° |
| 2026-04-29 13:33 | 17.19376 | -75.06227 | 29296 ft | 501 kts | 118° |
| 2026-04-29 13:33 | 17.17965 | -75.02891 | 29482 ft | 503 kts | 118° |
| 2026-04-29 13:33 | 17.16543 | -74.99533 | 29668 ft | 505 kts | 118° |
| 2026-04-29 13:34 | 17.15120 | -74.96172 | 29828 ft | 508 kts | 118° |
| 2026-04-29 13:34 | 17.13686 | -74.92788 | 29993 ft | 510 kts | 118° |
| 2026-04-29 13:34 | 17.12250 | -74.89400 | 30176 ft | 511 kts | 118° |
| 2026-04-29 13:34 | 17.10807 | -74.85997 | 30428 ft | 511 kts | 118° |
| 2026-04-29 13:35 | 17.09370 | -74.82609 | 30713 ft | 510 kts | 118° |
| 2026-04-29 13:35 | 17.07937 | -74.79227 | 30981 ft | 509 kts | 118° |
| 2026-04-29 13:35 | 17.06500 | -74.75844 | 31248 ft | 509 kts | 118° |
| 2026-04-29 13:35 | 17.05046 | -74.72423 | 31498 ft | 509 kts | 118° |
| 2026-04-29 13:36 | 17.03609 | -74.69046 | 31759 ft | 508 kts | 118° |
| 2026-04-29 13:36 | 17.02172 | -74.65671 | 32042 ft | 507 kts | 118° |
| 2026-04-29 13:36 | 17.00742 | -74.62312 | 32309 ft | 507 kts | 118° |
| 2026-04-29 13:36 | 16.99307 | -74.58945 | 32536 ft | 507 kts | 118° |
| 2026-04-29 13:37 | 16.97874 | -74.55582 | 32755 ft | 508 kts | 118° |
| 2026-04-29 13:37 | 16.96438 | -74.52216 | 33021 ft | 507 kts | 118° |
| 2026-04-29 13:37 | 16.95004 | -74.48854 | 33297 ft | 506 kts | 118° |
| 2026-04-29 13:37 | 16.93573 | -74.45501 | 33538 ft | 506 kts | 118° |
| 2026-04-29 13:38 | 16.92139 | -74.42146 | 33783 ft | 505 kts | 118° |
| 2026-04-29 13:38 | 16.90709 | -74.38800 | 34011 ft | 505 kts | 118° |
| 2026-04-29 13:38 | 16.89278 | -74.35453 | 34267 ft | 504 kts | 118° |
| 2026-04-29 13:38 | 16.87849 | -74.32113 | 34543 ft | 503 kts | 118° |
| 2026-04-29 13:39 | 16.86425 | -74.28786 | 34786 ft | 502 kts | 118° |
| 2026-04-29 13:39 | 16.85000 | -74.25460 | 34973 ft | 502 kts | 118° |
| 2026-04-29 13:39 | 16.82135 | -74.18779 | 34982 ft | 503 kts | 118° |
| 2026-04-29 13:40 | 16.79288 | -74.12139 | 34978 ft | 500 kts | 118° |
| 2026-04-29 13:40 | 16.76455 | -74.05541 | 34973 ft | 497 kts | 118° |
| 2026-04-29 13:41 | 16.73630 | -73.98973 | 34970 ft | 495 kts | 118° |
| 2026-04-29 13:41 | 16.70791 | -73.92378 | 34974 ft | 495 kts | 118° |
| 2026-04-29 13:42 | 16.67969 | -73.85829 | 34975 ft | 496 kts | 118° |
| 2026-04-29 13:42 | 16.65136 | -73.79260 | 34978 ft | 498 kts | 118° |
| 2026-04-29 13:43 | 16.62285 | -73.72659 | 34977 ft | 500 kts | 118° |
| 2026-04-29 13:43 | 16.59406 | -73.65994 | 34976 ft | 502 kts | 118° |
| 2026-04-29 13:44 | 16.56532 | -73.59349 | 34976 ft | 503 kts | 118° |
| 2026-04-29 13:44 | 16.53650 | -73.52694 | 34972 ft | 504 kts | 118° |
| 2026-04-29 13:45 | 16.50759 | -73.46037 | 34971 ft | 504 kts | 118° |
| 2026-04-29 13:45 | 16.47820 | -73.39402 | 34972 ft | 504 kts | 119° |
| 2026-04-29 13:46 | 16.44871 | -73.32777 | 34971 ft | 504 kts | 119° |
| 2026-04-29 13:46 | 16.41929 | -73.26159 | 34971 ft | 503 kts | 119° |
| 2026-04-29 13:47 | 16.38991 | -73.19545 | 34972 ft | 502 kts | 119° |
| 2026-04-29 13:47 | 16.36064 | -73.12956 | 34969 ft | 501 kts | 119° |
| 2026-04-29 13:48 | 16.33136 | -73.06378 | 34972 ft | 500 kts | 119° |
| 2026-04-29 13:48 | 16.30216 | -72.99823 | 34971 ft | 499 kts | 119° |
| 2026-04-29 13:49 | 16.27297 | -72.93276 | 34971 ft | 498 kts | 119° |
| 2026-04-29 13:49 | 16.24359 | -72.86694 | 34971 ft | 498 kts | 119° |
| 2026-04-29 13:50 | 16.21453 | -72.80202 | 34976 ft | 498 kts | 119° |
| 2026-04-29 13:50 | 16.18505 | -72.73624 | 34970 ft | 499 kts | 119° |
| 2026-04-29 13:51 | 16.15574 | -72.67085 | 34972 ft | 498 kts | 119° |
| 2026-04-29 13:51 | 16.12646 | -72.60554 | 34972 ft | 499 kts | 119° |
| 2026-04-29 13:52 | 16.09707 | -72.54009 | 34976 ft | 499 kts | 119° |
| 2026-04-29 13:52 | 16.06745 | -72.47419 | 34972 ft | 500 kts | 119° |
| 2026-04-29 13:53 | 16.03799 | -72.40869 | 34974 ft | 501 kts | 119° |
| 2026-04-29 13:53 | 16.00847 | -72.34312 | 34969 ft | 500 kts | 119° |
| 2026-04-29 13:54 | 15.97896 | -72.27766 | 34981 ft | 500 kts | 119° |
| 2026-04-29 13:54 | 15.94920 | -72.21238 | 34977 ft | 500 kts | 119° |
| 2026-04-29 13:55 | 15.91913 | -72.14675 | 34972 ft | 500 kts | 119° |
| 2026-04-29 13:55 | 15.88927 | -72.08155 | 34971 ft | 500 kts | 119° |
| 2026-04-29 13:56 | 15.85942 | -72.01636 | 34972 ft | 500 kts | 119° |
| 2026-04-29 13:56 | 15.82958 | -71.95123 | 34972 ft | 499 kts | 119° |
| 2026-04-29 13:57 | 15.79953 | -71.88570 | 34970 ft | 499 kts | 119° |
| 2026-04-29 13:57 | 15.77473 | -71.83164 | 34972 ft | 499 kts | 119° |
| 2026-04-29 13:58 | 15.73983 | -71.75567 | 34971 ft | 499 kts | 119° |
| 2026-04-29 13:58 | 15.71501 | -71.70169 | 34972 ft | 499 kts | 119° |
| 2026-04-29 13:59 | 15.68514 | -71.63679 | 34972 ft | 498 kts | 119° |
| 2026-04-29 13:59 | 15.65523 | -71.57185 | 34979 ft | 499 kts | 119° |
| 2026-04-29 14:00 | 15.62529 | -71.50692 | 34971 ft | 499 kts | 119° |
| 2026-04-29 14:00 | 15.59529 | -71.44189 | 34972 ft | 499 kts | 120° |
| 2026-04-29 14:01 | 15.56529 | -71.37694 | 34970 ft | 500 kts | 119° |
| 2026-04-29 14:01 | 15.53524 | -71.31193 | 34974 ft | 500 kts | 119° |
| 2026-04-29 14:02 | 15.50571 | -71.24601 | 34972 ft | 501 kts | 118° |
| 2026-04-29 14:02 | 15.47682 | -71.18030 | 34974 ft | 501 kts | 118° |
| 2026-04-29 14:03 | 15.44774 | -71.11453 | 34972 ft | 502 kts | 118° |
| 2026-04-29 14:03 | 15.41852 | -71.04881 | 34972 ft | 502 kts | 118° |
| 2026-04-29 14:04 | 15.38910 | -70.98266 | 34971 ft | 502 kts | 118° |
| 2026-04-29 14:04 | 15.35976 | -70.91696 | 34975 ft | 503 kts | 118° |
| 2026-04-29 14:05 | 15.32978 | -70.85152 | 34969 ft | 503 kts | 119° |
| 2026-04-29 14:05 | 15.29965 | -70.78618 | 34973 ft | 503 kts | 119° |
| 2026-04-29 14:06 | 15.26958 | -70.72082 | 34974 ft | 503 kts | 119° |
| 2026-04-29 14:06 | 15.23957 | -70.65548 | 34971 ft | 503 kts | 119° |
| 2026-04-29 14:07 | 15.20955 | -70.59017 | 34970 ft | 502 kts | 119° |
| 2026-04-29 14:07 | 15.17952 | -70.52490 | 34973 ft | 502 kts | 119° |
| 2026-04-29 14:08 | 15.14949 | -70.45971 | 34986 ft | 502 kts | 119° |
| 2026-04-29 14:08 | 15.11942 | -70.39448 | 34999 ft | 502 kts | 119° |
| 2026-04-29 14:09 | 15.08962 | -70.32859 | 34978 ft | 504 kts | 114° |
| 2026-04-29 14:09 | 15.07204 | -70.25824 | 34994 ft | 507 kts | 102° |
| 2026-04-29 14:10 | 15.06060 | -70.18611 | 34978 ft | 508 kts | 101° |
| 2026-04-29 14:10 | 15.04850 | -70.11411 | 34987 ft | 508 kts | 102° |
| 2026-04-29 14:11 | 15.03578 | -70.04219 | 34974 ft | 509 kts | 102° |
| 2026-04-29 14:11 | 15.02352 | -69.97004 | 34978 ft | 509 kts | 101° |
| 2026-04-29 14:12 | 15.01176 | -69.89791 | 34989 ft | 509 kts | 101° |
| 2026-04-29 14:12 | 14.99988 | -69.82583 | 34988 ft | 508 kts | 101° |
| 2026-04-29 14:13 | 14.98792 | -69.75388 | 34989 ft | 508 kts | 101° |
| 2026-04-29 14:13 | 14.97594 | -69.68187 | 34986 ft | 508 kts | 101° |
| 2026-04-29 14:14 | 14.96397 | -69.60996 | 34986 ft | 507 kts | 101° |
| 2026-04-29 14:14 | 14.95198 | -69.53806 | 34993 ft | 507 kts | 101° |
| 2026-04-29 14:15 | 14.93990 | -69.46580 | 34989 ft | 507 kts | 101° |
| 2026-04-29 14:15 | 14.92786 | -69.39396 | 34986 ft | 507 kts | 101° |
| 2026-04-29 14:16 | 14.91582 | -69.32216 | 34995 ft | 507 kts | 101° |
| 2026-04-29 14:16 | 14.90366 | -69.25037 | 34993 ft | 507 kts | 102° |
| 2026-04-29 14:17 | 14.89118 | -69.17862 | 34989 ft | 507 kts | 102° |
| 2026-04-29 14:17 | 14.87873 | -69.10690 | 34991 ft | 507 kts | 102° |
| 2026-04-29 14:18 | 14.86633 | -69.03466 | 35004 ft | 507 kts | 101° |
| 2026-04-29 14:18 | 14.85414 | -68.96288 | 34987 ft | 507 kts | 101° |
| 2026-04-29 14:19 | 14.84193 | -68.89108 | 34994 ft | 507 kts | 101° |
| 2026-04-29 14:19 | 14.82980 | -68.81930 | 35004 ft | 507 kts | 101° |
| 2026-04-29 14:20 | 14.81727 | -68.74754 | 34988 ft | 507 kts | 102° |
| 2026-04-29 14:20 | 14.80463 | -68.67589 | 34985 ft | 507 kts | 102° |
| 2026-04-29 14:21 | 14.79194 | -68.60382 | 34988 ft | 506 kts | 102° |
| 2026-04-29 14:21 | 14.77935 | -68.53225 | 34998 ft | 506 kts | 101° |
| 2026-04-29 14:22 | 14.76675 | -68.46070 | 34989 ft | 506 kts | 101° |
| 2026-04-29 14:22 | 14.75416 | -68.38931 | 34987 ft | 505 kts | 102° |
| 2026-04-29 14:23 | 14.74153 | -68.31793 | 34987 ft | 505 kts | 102° |
| 2026-04-29 14:23 | 14.72893 | -68.24662 | 34991 ft | 505 kts | 102° |
| 2026-04-29 14:24 | 14.71635 | -68.17535 | 34987 ft | 504 kts | 101° |
| 2026-04-29 14:24 | 14.70377 | -68.10415 | 34988 ft | 504 kts | 101° |
| 2026-04-29 14:25 | 14.69116 | -68.03299 | 34996 ft | 504 kts | 101° |
| 2026-04-29 14:25 | 14.67853 | -67.96178 | 34989 ft | 504 kts | 101° |
| 2026-04-29 14:26 | 14.66577 | -67.89007 | 35000 ft | 504 kts | 101° |
| 2026-04-29 14:26 | 14.65310 | -67.81891 | 34984 ft | 504 kts | 101° |
| 2026-04-29 14:27 | 14.64041 | -67.74776 | 34991 ft | 504 kts | 101° |
| 2026-04-29 14:28 | 14.62340 | -67.65264 | 34994 ft | 504 kts | 101° |
| 2026-04-29 14:28 | 14.61063 | -67.58137 | 34980 ft | 505 kts | 101° |
| 2026-04-29 14:29 | 14.59785 | -67.51009 | 34991 ft | 505 kts | 101° |
| 2026-04-29 14:29 | 14.58505 | -67.43890 | 34989 ft | 504 kts | 101° |
| 2026-04-29 14:30 | 14.57224 | -67.36769 | 34991 ft | 504 kts | 101° |
| 2026-04-29 14:30 | 14.55942 | -67.29653 | 34989 ft | 504 kts | 101° |
| 2026-04-29 14:31 | 14.54739 | -67.22517 | 35001 ft | 505 kts | 100° |
| 2026-04-29 14:31 | 14.53572 | -67.15329 | 34989 ft | 505 kts | 100° |
| 2026-04-29 14:32 | 14.52400 | -67.08182 | 34988 ft | 505 kts | 100° |
| 2026-04-29 14:32 | 14.51219 | -67.01053 | 34992 ft | 504 kts | 101° |
| 2026-04-29 14:33 | 14.50033 | -66.93933 | 34990 ft | 503 kts | 100° |
| 2026-04-29 14:33 | 14.48846 | -66.86817 | 34994 ft | 503 kts | 100° |
| 2026-04-29 14:34 | 14.47659 | -66.79706 | 34986 ft | 503 kts | 100° |
| 2026-04-29 14:34 | 14.46472 | -66.72609 | 35001 ft | 502 kts | 100° |
| 2026-04-29 14:35 | 14.45241 | -66.65519 | 35001 ft | 501 kts | 103° |
| 2026-04-29 14:35 | 14.43634 | -66.58473 | 34999 ft | 501 kts | 105° |
| 2026-04-29 14:36 | 14.41921 | -66.51511 | 35004 ft | 501 kts | 105° |
| 2026-04-29 14:36 | 14.40227 | -66.44493 | 34994 ft | 502 kts | 105° |
| 2026-04-29 14:37 | 14.38572 | -66.37503 | 35002 ft | 502 kts | 104° |
| 2026-04-29 14:37 | 14.36926 | -66.30512 | 34998 ft | 501 kts | 104° |
| 2026-04-29 14:38 | 14.35278 | -66.23530 | 35001 ft | 501 kts | 104° |
| 2026-04-29 14:38 | 14.33626 | -66.16551 | 34999 ft | 501 kts | 104° |
| 2026-04-29 14:39 | 14.31972 | -66.09573 | 34998 ft | 501 kts | 104° |
| 2026-04-29 14:39 | 14.30315 | -66.02602 | 34996 ft | 500 kts | 104° |
| 2026-04-29 14:40 | 14.28648 | -65.95589 | 35002 ft | 500 kts | 104° |
| 2026-04-29 14:40 | 14.26991 | -65.88625 | 34997 ft | 500 kts | 104° |
| 2026-04-29 14:41 | 14.25331 | -65.81665 | 34997 ft | 500 kts | 104° |
| 2026-04-29 14:41 | 14.23672 | -65.74713 | 35005 ft | 499 kts | 104° |
| 2026-04-29 14:42 | 14.21998 | -65.67714 | 34998 ft | 500 kts | 104° |
| 2026-04-29 14:42 | 14.20334 | -65.60760 | 34995 ft | 500 kts | 105° |
| 2026-04-29 14:43 | 14.18668 | -65.53807 | 34998 ft | 500 kts | 104° |
| 2026-04-29 14:43 | 14.17000 | -65.46853 | 34995 ft | 500 kts | 104° |
| 2026-04-29 14:44 | 14.15329 | -65.39901 | 35000 ft | 500 kts | 104° |
| 2026-04-29 14:44 | 14.13655 | -65.32945 | 34997 ft | 501 kts | 105° |
| 2026-04-29 14:45 | 14.11977 | -65.25981 | 35010 ft | 501 kts | 105° |
| 2026-04-29 14:45 | 14.10295 | -65.19007 | 34998 ft | 502 kts | 104° |
| 2026-04-29 14:46 | 14.08370 | -65.12121 | 34995 ft | 500 kts | 115° |
| 2026-04-29 14:46 | 14.04853 | -65.06016 | 35009 ft | 494 kts | 132° |
| 2026-04-29 14:47 | 14.00091 | -65.00910 | 35014 ft | 491 kts | 139° |
| 2026-04-29 14:47 | 13.95261 | -64.95937 | 35022 ft | 491 kts | 137° |
| 2026-04-29 14:48 | 13.90498 | -64.90907 | 35021 ft | 491 kts | 136° |
| 2026-04-29 14:48 | 13.85725 | -64.85885 | 35004 ft | 491 kts | 137° |
| 2026-04-29 14:49 | 13.80932 | -64.80889 | 34993 ft | 490 kts | 137° |
| 2026-04-29 14:49 | 13.76145 | -64.75898 | 34995 ft | 490 kts | 137° |
| 2026-04-29 14:50 | 13.71362 | -64.70908 | 34996 ft | 490 kts | 137° |
| 2026-04-29 14:50 | 13.66580 | -64.65919 | 34995 ft | 490 kts | 137° |
| 2026-04-29 14:51 | 13.61799 | -64.60934 | 34995 ft | 489 kts | 137° |
| 2026-04-29 14:51 | 13.57020 | -64.55953 | 35007 ft | 489 kts | 137° |
| 2026-04-29 14:52 | 13.52235 | -64.50969 | 35015 ft | 490 kts | 137° |
| 2026-04-29 14:52 | 13.47449 | -64.45987 | 35006 ft | 490 kts | 137° |
| 2026-04-29 14:53 | 13.42655 | -64.41001 | 35004 ft | 490 kts | 137° |
| 2026-04-29 14:53 | 13.37821 | -64.35986 | 35004 ft | 490 kts | 137° |
| 2026-04-29 14:54 | 13.33023 | -64.31020 | 35007 ft | 490 kts | 137° |
| 2026-04-29 14:54 | 13.28220 | -64.26052 | 34998 ft | 490 kts | 137° |
| 2026-04-29 14:55 | 13.23423 | -64.21088 | 34995 ft | 490 kts | 137° |
| 2026-04-29 14:55 | 13.19432 | -64.16962 | 35001 ft | 490 kts | 137° |
| 2026-04-29 14:56 | 13.14638 | -64.12007 | 35003 ft | 489 kts | 137° |
| 2026-04-29 14:56 | 13.09845 | -64.07056 | 35009 ft | 488 kts | 137° |
| 2026-04-29 14:57 | 13.05057 | -64.02115 | 34998 ft | 488 kts | 137° |
| 2026-04-29 14:57 | 13.00279 | -63.97185 | 34997 ft | 487 kts | 136° |
| 2026-04-29 14:58 | 12.95473 | -63.92229 | 35000 ft | 486 kts | 136° |
| 2026-04-29 14:58 | 12.90706 | -63.87315 | 34998 ft | 486 kts | 136° |
| 2026-04-29 14:59 | 12.85908 | -63.82372 | 34999 ft | 485 kts | 136° |
| 2026-04-29 14:59 | 12.81142 | -63.77465 | 34994 ft | 485 kts | 136° |
| 2026-04-29 15:00 | 12.76382 | -63.72569 | 34995 ft | 485 kts | 136° |
| 2026-04-29 15:00 | 12.71618 | -63.67674 | 35002 ft | 485 kts | 136° |
| 2026-04-29 15:01 | 12.66861 | -63.62787 | 35002 ft | 484 kts | 136° |
| 2026-04-29 15:01 | 12.62106 | -63.57903 | 35000 ft | 484 kts | 136° |
| 2026-04-29 15:02 | 12.57345 | -63.53016 | 34997 ft | 484 kts | 136° |
| 2026-04-29 15:02 | 12.52593 | -63.48140 | 34996 ft | 484 kts | 136° |
| 2026-04-29 15:03 | 12.47835 | -63.43260 | 35000 ft | 484 kts | 136° |
| 2026-04-29 15:03 | 12.43048 | -63.38408 | 34995 ft | 484 kts | 137° |
| 2026-04-29 15:04 | 12.38153 | -63.33680 | 35003 ft | 484 kts | 138° |
| 2026-04-29 15:04 | 12.33245 | -63.28982 | 35008 ft | 483 kts | 138° |
| 2026-04-29 15:05 | 12.28315 | -63.24238 | 34997 ft | 483 kts | 138° |
| 2026-04-29 15:05 | 12.23424 | -63.19514 | 34997 ft | 483 kts | 138° |
| 2026-04-29 15:06 | 12.18535 | -63.14790 | 35005 ft | 484 kts | 138° |
| 2026-04-29 15:06 | 12.16084 | -63.12423 | 34750 ft | 487 kts | 138° |
| 2026-04-29 15:06 | 12.13601 | -63.10023 | 34357 ft | 483 kts | 138° |
| 2026-04-29 15:06 | 12.11170 | -63.07676 | 33916 ft | 478 kts | 137° |
| 2026-04-29 15:07 | 12.08764 | -63.05355 | 33488 ft | 473 kts | 137° |
| 2026-04-29 15:07 | 12.06382 | -63.03057 | 33053 ft | 469 kts | 138° |
| 2026-04-29 15:07 | 12.04019 | -63.00778 | 32620 ft | 465 kts | 138° |
| 2026-04-29 15:07 | 12.01676 | -62.98519 | 32186 ft | 461 kts | 138° |
| 2026-04-29 15:08 | 11.99350 | -62.96278 | 31760 ft | 457 kts | 138° |
| 2026-04-29 15:08 | 11.97048 | -62.94060 | 31336 ft | 453 kts | 137° |
| 2026-04-29 15:08 | 11.94766 | -62.91863 | 30915 ft | 449 kts | 137° |
| 2026-04-29 15:08 | 11.92502 | -62.89684 | 30494 ft | 445 kts | 137° |
| 2026-04-29 15:09 | 11.90259 | -62.87524 | 30077 ft | 442 kts | 138° |
| 2026-04-29 15:09 | 11.88031 | -62.85379 | 29664 ft | 438 kts | 137° |
| 2026-04-29 15:09 | 11.85830 | -62.83261 | 29246 ft | 433 kts | 137° |
| 2026-04-29 15:09 | 11.83646 | -62.81159 | 28817 ft | 429 kts | 137° |
| 2026-04-29 15:10 | 11.81487 | -62.79081 | 28397 ft | 425 kts | 137° |
| 2026-04-29 15:10 | 11.79315 | -62.76992 | 27975 ft | 421 kts | 137° |
| 2026-04-29 15:10 | 11.77192 | -62.74952 | 27561 ft | 417 kts | 137° |
| 2026-04-29 15:10 | 11.75095 | -62.72936 | 27159 ft | 413 kts | 137° |
| 2026-04-29 15:11 | 11.73014 | -62.70937 | 26748 ft | 408 kts | 137° |
| 2026-04-29 15:11 | 11.70956 | -62.68958 | 26355 ft | 404 kts | 137° |
| 2026-04-29 15:11 | 11.68923 | -62.67005 | 25948 ft | 400 kts | 137° |
| 2026-04-29 15:11 | 11.66906 | -62.65067 | 25566 ft | 396 kts | 137° |
| 2026-04-29 15:12 | 11.64912 | -62.63154 | 25180 ft | 391 kts | 137° |
| 2026-04-29 15:12 | 11.63602 | -62.61896 | 24918 ft | 389 kts | 137° |
| 2026-04-29 15:12 | 11.60988 | -62.59387 | 24410 ft | 383 kts | 137° |
| 2026-04-29 15:12 | 11.59055 | -62.57533 | 24024 ft | 379 kts | 137° |
| 2026-04-29 15:13 | 11.57143 | -62.55698 | 23651 ft | 375 kts | 137° |
| 2026-04-29 15:13 | 11.55252 | -62.53883 | 23271 ft | 371 kts | 137° |
| 2026-04-29 15:13 | 11.53380 | -62.52087 | 22888 ft | 368 kts | 137° |
| 2026-04-29 15:13 | 11.51500 | -62.50284 | 22511 ft | 365 kts | 137° |
| 2026-04-29 15:14 | 11.49660 | -62.48521 | 22146 ft | 361 kts | 137° |
| 2026-04-29 15:14 | 11.47837 | -62.46774 | 21772 ft | 359 kts | 137° |
| 2026-04-29 15:14 | 11.46030 | -62.45042 | 21405 ft | 355 kts | 137° |
| 2026-04-29 15:14 | 11.44236 | -62.43323 | 21043 ft | 352 kts | 137° |
| 2026-04-29 15:15 | 11.42458 | -62.41620 | 20689 ft | 349 kts | 137° |
| 2026-04-29 15:15 | 11.40692 | -62.39929 | 20323 ft | 347 kts | 137° |
| 2026-04-29 15:15 | 11.38942 | -62.38255 | 19974 ft | 344 kts | 137° |
| 2026-04-29 15:15 | 11.37208 | -62.36594 | 19622 ft | 341 kts | 136° |
| 2026-04-29 15:16 | 11.35486 | -62.34945 | 19269 ft | 339 kts | 136° |
| 2026-04-29 15:16 | 11.33775 | -62.33309 | 18914 ft | 336 kts | 136° |
| 2026-04-29 15:16 | 11.32076 | -62.31683 | 18570 ft | 334 kts | 136° |
| 2026-04-29 15:16 | 11.30388 | -62.30068 | 18225 ft | 332 kts | 136° |
| 2026-04-29 15:17 | 11.28715 | -62.28466 | 17883 ft | 329 kts | 136° |
| 2026-04-29 15:17 | 11.27049 | -62.26870 | 17541 ft | 327 kts | 136° |
| 2026-04-29 15:17 | 11.25395 | -62.25287 | 17203 ft | 325 kts | 136° |
| 2026-04-29 15:17 | 11.24283 | -62.24224 | 16975 ft | 324 kts | 136° |
| 2026-04-29 15:18 | 11.22119 | -62.22156 | 16538 ft | 321 kts | 136° |
| 2026-04-29 15:18 | 11.20495 | -62.20604 | 16199 ft | 319 kts | 136° |
| 2026-04-29 15:18 | 11.18883 | -62.19063 | 15873 ft | 316 kts | 136° |
| 2026-04-29 15:18 | 11.17285 | -62.17536 | 15555 ft | 314 kts | 135° |
| 2026-04-29 15:19 | 11.15697 | -62.16019 | 15222 ft | 312 kts | 135° |
| 2026-04-29 15:19 | 11.14098 | -62.14492 | 14884 ft | 310 kts | 135° |
| 2026-04-29 15:19 | 11.12532 | -62.12997 | 14578 ft | 307 kts | 135° |
| 2026-04-29 15:19 | 11.10976 | -62.11511 | 14263 ft | 305 kts | 135° |
| 2026-04-29 15:20 | 11.09434 | -62.10039 | 13937 ft | 303 kts | 135° |
| 2026-04-29 15:20 | 11.07900 | -62.08574 | 13623 ft | 301 kts | 135° |
| 2026-04-29 15:20 | 11.06377 | -62.07120 | 13299 ft | 299 kts | 135° |
| 2026-04-29 15:20 | 11.04861 | -62.05673 | 13000 ft | 299 kts | 134° |
| 2026-04-29 15:21 | 11.03338 | -62.04219 | 12689 ft | 302 kts | 134° |
| 2026-04-29 15:21 | 11.01801 | -62.02750 | 12364 ft | 306 kts | 134° |
| 2026-04-29 15:21 | 11.00233 | -62.01254 | 12039 ft | 310 kts | 134° |
| 2026-04-29 15:21 | 10.98657 | -61.99751 | 11704 ft | 310 kts | 134° |
| 2026-04-29 15:22 | 10.97091 | -61.98259 | 11421 ft | 307 kts | 135° |
| 2026-04-29 15:22 | 10.95541 | -61.96781 | 11075 ft | 305 kts | 135° |
| 2026-04-29 15:22 | 10.93998 | -61.95309 | 10740 ft | 303 kts | 135° |
| 2026-04-29 15:22 | 10.92463 | -61.93845 | 10409 ft | 301 kts | 135° |
| 2026-04-29 15:23 | 10.90957 | -61.92408 | 10273 ft | 292 kts | 135° |
| 2026-04-29 15:23 | 10.89493 | -61.91015 | 10137 ft | 284 kts | 135° |
| 2026-04-29 15:23 | 10.88080 | -61.89669 | 10101 ft | 272 kts | 135° |
| 2026-04-29 15:23 | 10.86725 | -61.88379 | 10089 ft | 262 kts | 136° |
| 2026-04-29 15:24 | 10.85832 | -61.87529 | 10076 ft | 259 kts | 135° |
| 2026-04-29 15:24 | 10.84526 | -61.86283 | 10002 ft | 258 kts | 135° |
| 2026-04-29 15:24 | 10.83182 | -61.85001 | 9717 ft | 275 kts | 135° |
| 2026-04-29 15:24 | 10.81585 | -61.83862 | 9191 ft | 287 kts | 158° |
| 2026-04-29 15:25 | 10.79624 | -61.83555 | 8830 ft | 289 kts | 185° |
| 2026-04-29 15:25 | 10.77750 | -61.84197 | 8706 ft | 285 kts | 211° |
| 2026-04-29 15:25 | 10.76176 | -61.85393 | 8466 ft | 279 kts | 205° |
| 2026-04-29 15:25 | 10.74334 | -61.85779 | 8161 ft | 271 kts | 169° |
| 2026-04-29 15:26 | 10.72650 | -61.85029 | 7843 ft | 265 kts | 139° |
| 2026-04-29 15:26 | 10.71369 | -61.83730 | 7799 ft | 259 kts | 130° |
| 2026-04-29 15:26 | 10.70263 | -61.82299 | 7670 ft | 254 kts | 126° |
| 2026-04-29 15:26 | 10.69280 | -61.80804 | 7514 ft | 255 kts | 121° |
| 2026-04-29 15:27 | 10.68422 | -61.79255 | 7517 ft | 250 kts | 117° |
| 2026-04-29 15:27 | 10.68085 | -61.78557 | 7512 ft | 254 kts | 115° |
| 2026-04-29 15:27 | 10.67479 | -61.77070 | 7346 ft | 261 kts | 110° |
| 2026-04-29 15:27 | 10.66975 | -61.75286 | 6879 ft | 264 kts | 101° |
| 2026-04-29 15:28 | 10.66821 | -61.73432 | 6370 ft | 264 kts | 91° |
| 2026-04-29 15:28 | 10.66676 | -61.72222 | 6019 ft | 262 kts | 110° |
| 2026-04-29 15:28 | 10.65367 | -61.70165 | 5380 ft | 259 kts | 129° |
| 2026-04-29 15:28 | 10.64231 | -61.68741 | 4880 ft | 259 kts | 128° |
| 2026-04-29 15:29 | 10.63143 | -61.67286 | 4370 ft | 258 kts | 126° |
| 2026-04-29 15:29 | 10.61221 | -61.64492 | 4090 ft | 231 kts | 124° |
| 2026-04-29 15:30 | 10.59739 | -61.61895 | 4072 ft | 202 kts | 99° |
| 2026-04-29 15:30 | 10.59590 | -61.60505 | 4081 ft | 195 kts | 97° |
| 2026-04-29 15:30 | 10.59500 | -61.59144 | 4112 ft | 192 kts | 93° |
| 2026-04-29 15:30 | 10.59480 | -61.57778 | 4115 ft | 194 kts | 92° |
| 2026-04-29 15:31 | 10.59481 | -61.56382 | 4064 ft | 197 kts | 91° |
| 2026-04-29 15:31 | 10.59487 | -61.54969 | 3815 ft | 200 kts | 91° |
| 2026-04-29 15:31 | 10.59489 | -61.53595 | 3553 ft | 193 kts | 91° |
| 2026-04-29 15:31 | 10.59491 | -61.52242 | 3302 ft | 186 kts | 91° |
| 2026-04-29 15:32 | 10.59493 | -61.50945 | 3052 ft | 181 kts | 91° |
| 2026-04-29 15:32 | 10.59497 | -61.49686 | 2825 ft | 176 kts | 92° |
| 2026-04-29 15:32 | 10.59499 | -61.48472 | 2588 ft | 166 kts | 92° |
| 2026-04-29 15:32 | 10.59500 | -61.47330 | 2454 ft | 160 kts | 92° |
| 2026-04-29 15:33 | 10.59455 | -61.46204 | 2193 ft | 158 kts | 91° |
| 2026-04-29 15:33 | 10.59641 | -61.45069 | 2063 ft | 166 kts | 92° |
| 2026-04-29 15:33 | 10.59631 | -61.43872 | 1734 ft | 165 kts | 91° |
| 2026-04-29 15:33 | 10.59651 | -61.42748 | 1417 ft | 153 kts | 93° |
| 2026-04-29 15:34 | 10.59648 | -61.41662 | 1211 ft | 150 kts | 95° |
| 2026-04-29 15:34 | 10.59605 | -61.40605 | 1045 ft | 151 kts | 96° |
| 2026-04-29 15:34 | 10.59567 | -61.39535 | 829 ft | 152 kts | 96° |
| 2026-04-29 15:34 | 10.59538 | -61.38451 | 637 ft | 150 kts | 93° |
| 2026-04-29 15:35 | 10.59546 | -61.37405 | 442 ft | 147 kts | 92° |
| 2026-04-29 15:35 | 10.59540 | -61.36370 | 261 ft | 145 kts | 92° |
| 2026-04-29 15:35 | 10.59537 | -61.35350 | 98 ft | 143 kts | 92° |
| 2026-04-29 15:35 | 10.59536 | -61.34351 | 51 ft | 132 kts | 92° |
| 2026-04-29 15:36 | 10.59538 | -61.33570 | 50 ft | 89 kts | 90° |
| 2026-04-29 15:36 | 10.59537 | -61.33070 | 50 ft | 57 kts | 90° |
| 2026-04-29 15:36 | 10.59601 | -61.32940 | 50 ft | 12 kts | 337° |
| 2026-04-29 15:36 | 10.59678 | -61.32961 | 50 ft | 11 kts | 338° |
| 2026-04-29 15:37 | 10.59705 | -61.33021 | 50 ft | 12 kts | 278° |
| 2026-04-29 15:37 | 10.59707 | -61.33128 | 50 ft | 20 kts | 269° |
| 2026-04-29 15:37 | 10.59706 | -61.33314 | 50 ft | 32 kts | 270° |
| 2026-04-29 15:37 | 10.59706 | -61.33570 | 51 ft | 38 kts | 271° |
| 2026-04-29 15:38 | 10.59777 | -61.33735 | 47 ft | 21 kts | 1° |
| 2026-04-29 15:38 | 10.59833 | -61.33820 | 50 ft | 15 kts | 285° |
| 2026-04-29 15:38 | 10.59920 | -61.33858 | 50 ft | 5 kts | 359° |
| 2026-04-29 15:38 | 10.59939 | -61.33857 | 50 ft | 0 kts | 0° |